createdAt,value
2022-11-17T00:00:21.237Z,62.8571
2022-11-17T00:01:21.267Z,62.7143
2022-11-17T00:02:21.382Z,62.7857
2022-11-17T00:03:21.337Z,62.8571
2022-11-17T00:04:21.376Z,62.6429
2022-11-17T00:05:21.405Z,62.6429
2022-11-17T00:06:21.443Z,62.6429
2022-11-17T00:07:21.570Z,62.7143
2022-11-17T00:08:21.506Z,62.6429
2022-11-17T00:09:21.542Z,62.5
2022-11-17T00:10:21.571Z,62.5
2022-11-17T00:11:21.611Z,62.5714
2022-11-17T00:12:22.892Z,62.4286
2022-11-17T00:13:21.672Z,62.4286
2022-11-17T00:14:21.698Z,62.2857
2022-11-17T00:15:21.734Z,62.4286
2022-11-17T00:16:21.772Z,62.5
2022-11-17T00:17:21.797Z,62.6429
2022-11-17T00:18:21.829Z,62.6429
2022-11-17T00:19:21.864Z,62.5714
2022-11-17T00:20:21.898Z,62.7857
2022-11-17T00:21:21.978Z,62.6429
2022-11-17T00:22:21.952Z,62.5714
2022-11-17T00:23:21.981Z,62.5714
2022-11-17T00:24:22.016Z,62.5714
2022-11-17T00:25:22.059Z,62.5714
2022-11-17T00:26:22.092Z,62.7857
2022-11-17T00:27:22.120Z,62.7143
2022-11-17T00:28:22.163Z,62.8571
2022-11-17T00:29:22.216Z,62.7857
2022-11-17T00:30:22.233Z,62.7143
2022-11-17T00:31:22.262Z,62.5714
2022-11-17T00:32:22.295Z,62.5714
2022-11-17T00:33:22.321Z,62.5714
2022-11-17T00:34:22.344Z,62.5714
2022-11-17T00:35:22.372Z,62.6429
2022-11-17T00:36:22.403Z,62.4286
2022-11-17T00:37:22.437Z,62.6429
2022-11-17T00:38:22.475Z,62.5
2022-11-17T00:39:22.505Z,62.5714
2022-11-17T00:40:22.541Z,62.6429
2022-11-17T00:41:22.577Z,62.7857
2022-11-17T00:42:22.618Z,62.6429
2022-11-17T00:43:22.640Z,62.5
2022-11-17T00:44:22.677Z,62.5
2022-11-17T00:45:22.709Z,62.5
2022-11-17T00:46:22.729Z,62.6429
2022-11-17T00:47:22.763Z,62.7143
2022-11-17T00:48:22.804Z,62.5714
2022-11-17T00:49:22.843Z,62.7857
2022-11-17T00:50:22.878Z,62.8571
2022-11-17T00:51:22.904Z,62.9286
2022-11-17T00:52:22.936Z,62.8571
2022-11-17T00:53:22.972Z,62.8571
2022-11-17T00:54:23.009Z,62.8571
2022-11-17T00:55:23.186Z,62.8571
2022-11-17T00:56:23.079Z,62.9286
2022-11-17T00:57:23.114Z,62.9286
2022-11-17T00:58:23.146Z,62.9286
2022-11-17T00:59:23.173Z,63
2022-11-17T01:00:23.207Z,63
2022-11-17T01:01:23.261Z,62.9286
2022-11-17T01:02:23.274Z,62.7143
2022-11-17T01:03:23.307Z,62.7857
2022-11-17T01:04:23.345Z,62.7857
2022-11-17T01:05:23.378Z,62.5714
2022-11-17T01:06:23.407Z,62.6429
2022-11-17T01:07:23.465Z,62.8571
2022-11-17T01:08:23.472Z,62.8571
2022-11-17T01:09:23.497Z,63
2022-11-17T01:10:23.527Z,62.8571
2022-11-17T01:11:23.560Z,62.8571
2022-11-17T01:12:23.587Z,62.7143
2022-11-17T01:13:23.620Z,62.7143
2022-11-17T01:14:23.654Z,62.7143
2022-11-17T01:15:23.682Z,62.6429
2022-11-17T01:16:23.707Z,62.7143
2022-11-17T01:17:23.733Z,62.9286
2022-11-17T01:18:23.755Z,62.7857
2022-11-17T01:19:23.793Z,63
2022-11-17T01:20:23.815Z,62.9286
2022-11-17T01:21:23.839Z,62.8571
2022-11-17T01:22:23.869Z,62.7857
2022-11-17T01:23:23.897Z,62.8571
2022-11-17T01:24:23.933Z,62.7143
2022-11-17T01:25:23.965Z,62.7857
2022-11-17T01:26:23.998Z,62.9286
2022-11-17T01:27:24.026Z,62.7143
2022-11-17T01:28:24.046Z,62.6429
2022-11-17T01:29:24.087Z,62.7143
2022-11-17T01:30:24.113Z,62.7143
2022-11-17T01:31:24.142Z,62.7143
2022-11-17T01:32:24.173Z,62.6429
2022-11-17T01:33:24.207Z,62.7143
2022-11-17T01:34:24.237Z,62.7143
2022-11-17T01:35:24.276Z,62.7143
2022-11-17T01:36:24.310Z,62.5714
2022-11-17T01:37:24.348Z,62.8571
2022-11-17T01:38:24.387Z,62.9286
2022-11-17T01:39:24.407Z,62.7857
2022-11-17T01:40:24.441Z,62.7857
2022-11-17T01:41:24.478Z,62.6429
2022-11-17T01:42:24.508Z,62.6429
2022-11-17T01:43:24.545Z,62.6429
2022-11-17T01:44:24.577Z,62.6429
2022-11-17T01:45:24.610Z,62.6429
2022-11-17T01:46:24.637Z,62.5714
2022-11-17T01:47:24.665Z,62.7143
2022-11-17T01:48:24.700Z,62.8571
2022-11-17T01:49:24.737Z,62.7857
2022-11-17T01:50:24.769Z,62.8571
2022-11-17T01:51:24.795Z,62.6429
2022-11-17T01:52:24.818Z,62.7143
2022-11-17T01:53:24.842Z,62.8571
2022-11-17T01:54:24.886Z,62.7143
2022-11-17T01:55:24.907Z,62.9286
2022-11-17T01:56:24.938Z,62.9286
2022-11-17T01:57:24.970Z,62.9286
2022-11-17T01:58:25.007Z,63
2022-11-17T01:59:25.028Z,63
2022-11-17T02:00:25.055Z,62.9286
2022-11-17T02:01:25.123Z,62.8571
2022-11-17T02:02:25.105Z,62.8571
2022-11-17T02:03:25.134Z,62.7857
2022-11-17T02:04:25.169Z,62.7143
2022-11-17T02:05:25.200Z,62.7143
2022-11-17T02:06:25.224Z,62.7143
2022-11-17T02:07:25.295Z,62.8571
2022-11-17T02:08:25.299Z,62.7143
2022-11-17T02:09:25.328Z,62.7857
2022-11-17T02:10:25.360Z,62.7857
2022-11-17T02:11:25.392Z,63
2022-11-17T02:12:25.418Z,62.9286
2022-11-17T02:13:25.455Z,62.7857
2022-11-17T02:14:25.484Z,62.7143
2022-11-17T02:15:25.520Z,62.7143
2022-11-17T02:16:25.549Z,62.6429
2022-11-17T02:17:25.584Z,62.6429
2022-11-17T02:18:25.611Z,62.5714
2022-11-17T02:19:25.652Z,62.7143
2022-11-17T02:20:25.686Z,62.6429
2022-11-17T02:21:25.717Z,62.6429
2022-11-17T02:22:25.746Z,62.7143
2022-11-17T02:23:25.773Z,62.7143
2022-11-17T02:24:25.807Z,62.5714
2022-11-17T02:25:27.109Z,62.6429
2022-11-17T02:26:25.877Z,62.7143
2022-11-17T02:27:25.901Z,62.7857
2022-11-17T02:28:25.934Z,63
2022-11-17T02:29:25.971Z,63
2022-11-17T02:30:26.015Z,62.8571
2022-11-17T02:31:26.052Z,62.7857
2022-11-17T02:32:26.082Z,62.7143
2022-11-17T02:33:26.115Z,62.7857
2022-11-17T02:34:26.151Z,62.9286
2022-11-17T02:35:26.191Z,62.7857
2022-11-17T02:36:26.227Z,62.7857
2022-11-17T02:37:26.256Z,62.8571
2022-11-17T02:38:26.290Z,62.7857
2022-11-17T02:39:26.327Z,62.9286
2022-11-17T02:40:26.360Z,62.7857
2022-11-17T02:41:26.387Z,62.9286
2022-11-17T02:42:26.416Z,62.7857
2022-11-17T02:43:26.447Z,62.8571
2022-11-17T02:44:26.481Z,62.7857
2022-11-17T02:45:26.517Z,62.7143
2022-11-17T02:46:26.551Z,62.7857
2022-11-17T02:47:26.583Z,62.7857
2022-11-17T02:48:26.616Z,62.7857
2022-11-17T02:49:26.653Z,62.9286
2022-11-17T02:50:28.440Z,62.9286
2022-11-17T02:51:26.724Z,62.7857
2022-11-17T02:52:26.755Z,62.6429
2022-11-17T02:53:26.779Z,62.7857
2022-11-17T02:54:26.810Z,62.7143
2022-11-17T02:55:26.836Z,62.7857
2022-11-17T02:56:26.871Z,62.9286
2022-11-17T02:57:26.900Z,62.9286
2022-11-17T02:58:26.937Z,62.9286
2022-11-17T02:59:26.972Z,62.9286
2022-11-17T03:00:27.000Z,62.8571
2022-11-17T03:01:27.092Z,62.8571
2022-11-17T03:02:27.051Z,62.9286
2022-11-17T03:03:27.079Z,62.9286
2022-11-17T03:04:27.115Z,62.8571
2022-11-17T03:05:27.157Z,63
2022-11-17T03:06:27.182Z,63.0714
2022-11-17T03:07:27.251Z,62.9286
2022-11-17T03:08:32.626Z,63
2022-11-17T03:09:27.285Z,63.0714
2022-11-17T03:10:27.315Z,63.0714
2022-11-17T03:11:27.345Z,63.2143
2022-11-17T03:12:27.382Z,63.0714
2022-11-17T03:13:27.416Z,63.0714
2022-11-17T03:14:27.455Z,62.9286
2022-11-17T03:15:27.477Z,62.9286
2022-11-17T03:16:27.514Z,62.9286
2022-11-17T03:17:27.554Z,62.8571
2022-11-17T03:18:27.581Z,62.7857
2022-11-17T03:19:27.619Z,62.7857
2022-11-17T03:20:27.668Z,62.9286
2022-11-17T03:21:27.702Z,62.9286
2022-11-17T03:22:27.731Z,63
2022-11-17T03:23:27.763Z,62.8571
2022-11-17T03:24:27.801Z,63.0714
2022-11-17T03:25:27.829Z,63.0714
2022-11-17T03:26:27.864Z,63.0714
2022-11-17T03:27:27.891Z,63.2143
2022-11-17T03:28:27.927Z,63.2143
2022-11-17T03:29:27.964Z,63.2143
2022-11-17T03:30:29.202Z,63.1429
2022-11-17T03:31:28.027Z,63.2143
2022-11-17T03:32:28.061Z,63.2143
2022-11-17T03:33:28.095Z,63.4286
2022-11-17T03:34:28.135Z,63.2143
2022-11-17T03:35:28.155Z,63.2143
2022-11-17T03:36:28.190Z,63.2143
2022-11-17T03:37:28.221Z,63.2143
2022-11-17T03:38:28.254Z,63.3571
2022-11-17T03:39:28.285Z,63.2857
2022-11-17T03:40:28.318Z,63.2143
2022-11-17T03:41:28.366Z,63.1429
2022-11-17T03:42:28.393Z,63
2022-11-17T03:43:28.424Z,63.0714
2022-11-17T03:44:28.459Z,63.1429
2022-11-17T03:45:28.485Z,63.1429
2022-11-17T03:46:28.530Z,63.1429
2022-11-17T03:47:28.542Z,63.1429
2022-11-17T03:48:28.587Z,63.2143
2022-11-17T03:49:28.615Z,63.2143
2022-11-17T03:50:28.647Z,63.2143
2022-11-17T03:51:28.681Z,63.1429
2022-11-17T03:52:28.719Z,63.1429
2022-11-17T03:53:28.745Z,63.2143
2022-11-17T03:54:28.781Z,63
2022-11-17T03:55:28.815Z,63.0714
2022-11-17T03:56:28.858Z,63.1429
2022-11-17T03:57:28.892Z,63.2143
2022-11-17T03:58:28.925Z,63.2143
2022-11-17T03:59:28.957Z,63.3571
2022-11-17T04:00:28.995Z,63.3571
2022-11-17T04:01:29.093Z,63.5714
2022-11-17T04:02:29.063Z,63.5
2022-11-17T04:03:29.105Z,63.5
2022-11-17T04:04:29.142Z,63.4286
2022-11-17T04:05:29.170Z,63.5
2022-11-17T04:06:29.198Z,63.4286
2022-11-17T04:07:29.359Z,63.2857
2022-11-17T04:08:29.272Z,63.2857
2022-11-17T04:09:29.302Z,63.4286
2022-11-17T04:10:29.340Z,63.4286
2022-11-17T04:11:29.373Z,63.3571
2022-11-17T04:12:29.411Z,63.5
2022-11-17T04:13:29.443Z,63.5
2022-11-17T04:14:29.469Z,63.3571
2022-11-17T04:15:29.498Z,63.4286
2022-11-17T04:16:29.527Z,63.4286
2022-11-17T04:17:29.563Z,63.5
2022-11-17T04:18:29.598Z,63.2857
2022-11-17T04:19:29.644Z,63.4286
2022-11-17T04:20:29.663Z,63.4286
2022-11-17T04:21:29.695Z,63.4286
2022-11-17T04:22:29.726Z,63.5
2022-11-17T04:23:29.762Z,63.4286
2022-11-17T04:24:29.794Z,63.2857
2022-11-17T04:25:29.831Z,63.3571
2022-11-17T04:26:29.870Z,63.5
2022-11-17T04:27:29.899Z,63.5714
2022-11-17T04:28:29.941Z,63.6429
2022-11-17T04:29:29.974Z,63.5714
2022-11-17T04:30:30.006Z,63.7143
2022-11-17T04:31:30.036Z,63.7143
2022-11-17T04:32:30.066Z,63.7143
2022-11-17T04:33:30.107Z,63.7143
2022-11-17T04:34:30.137Z,63.7143
2022-11-17T04:35:30.170Z,63.7857
2022-11-17T04:36:30.205Z,63.7857
2022-11-17T04:37:30.241Z,63.7143
2022-11-17T04:38:30.265Z,63.7143
2022-11-17T04:39:30.300Z,63.7143
2022-11-17T04:40:30.330Z,63.8571
2022-11-17T04:41:30.351Z,63.7857
2022-11-17T04:42:30.386Z,63.7143
2022-11-17T04:43:30.409Z,63.8571
2022-11-17T04:44:30.443Z,63.8571
2022-11-17T04:45:30.477Z,63.9286
2022-11-17T04:46:30.519Z,64
2022-11-17T04:47:30.543Z,64
2022-11-17T04:48:30.576Z,64.0714
2022-11-17T04:49:30.612Z,64
2022-11-17T04:50:30.647Z,64.0714
2022-11-17T04:51:30.678Z,64.0714
2022-11-17T04:52:30.712Z,64.0714
2022-11-17T04:53:30.745Z,64.0714
2022-11-17T04:54:30.776Z,64.0714
2022-11-17T04:55:30.806Z,63.9286
2022-11-17T04:56:30.842Z,64.0714
2022-11-17T04:57:30.871Z,64.0714
2022-11-17T04:58:30.918Z,64
2022-11-17T04:59:30.950Z,64
2022-11-17T05:00:30.980Z,64.1429
2022-11-17T05:01:31.007Z,64.2143
2022-11-17T05:02:31.082Z,64.2143
2022-11-17T05:03:31.081Z,64.2143
2022-11-17T05:04:31.112Z,64.3571
2022-11-17T05:05:31.147Z,64.3571
2022-11-17T05:06:31.175Z,64.3571
2022-11-17T05:07:31.256Z,64.6429
2022-11-17T05:08:31.245Z,64.6429
2022-11-17T05:09:31.272Z,64.5714
2022-11-17T05:10:31.293Z,64.5714
2022-11-17T05:11:31.315Z,64.5714
2022-11-17T05:12:31.352Z,64.5
2022-11-17T05:13:31.387Z,64.6429
2022-11-17T05:14:31.408Z,64.6429
2022-11-17T05:15:31.447Z,64.5714
2022-11-17T05:16:31.488Z,64.5714
2022-11-17T05:17:31.523Z,64.5714
2022-11-17T05:18:31.555Z,64.5
2022-11-17T05:19:31.588Z,64.6429
2022-11-17T05:20:31.617Z,64.5714
2022-11-17T05:21:31.647Z,64.5714
2022-11-17T05:22:31.683Z,64.5
2022-11-17T05:23:31.720Z,64.4286
2022-11-17T05:24:31.733Z,64.4286
2022-11-17T05:25:31.765Z,64.5
2022-11-17T05:26:31.798Z,64.3571
2022-11-17T05:27:31.825Z,64.3571
2022-11-17T05:28:31.858Z,64.3571
2022-11-17T05:29:31.893Z,64.4286
2022-11-17T05:30:31.922Z,64.5
2022-11-17T05:31:31.953Z,64.5
2022-11-17T05:32:31.980Z,64.5714
2022-11-17T05:33:37.481Z,64.5714
2022-11-17T05:34:32.047Z,64.5714
2022-11-17T05:35:32.083Z,64.5714
2022-11-17T05:36:32.112Z,64.6429
2022-11-17T05:37:32.147Z,64.6429
2022-11-17T05:38:32.179Z,64.7143
2022-11-17T05:39:32.212Z,64.6429
2022-11-17T05:40:32.244Z,64.5714
2022-11-17T05:41:32.275Z,64.5714
2022-11-17T05:42:32.309Z,64.5714
2022-11-17T05:43:32.487Z,64.5714
2022-11-17T05:44:32.371Z,64.6429
2022-11-17T05:45:32.405Z,64.5714
2022-11-17T05:46:32.439Z,64.5
2022-11-17T05:47:32.465Z,64.5714
2022-11-17T05:48:32.503Z,64.5714
2022-11-17T05:49:32.538Z,64.6429
2022-11-17T05:50:32.560Z,64.6429
2022-11-17T05:51:32.583Z,64.5714
2022-11-17T05:52:32.619Z,64.6429
2022-11-17T05:53:32.937Z,64.6429
2022-11-17T05:54:32.662Z,64.5
2022-11-17T05:55:32.696Z,64.6429
2022-11-17T05:56:32.729Z,64.5
2022-11-17T05:57:32.763Z,64.6429
2022-11-17T05:58:32.790Z,64.6429
2022-11-17T05:59:32.826Z,64.6429
2022-11-17T06:00:32.856Z,64.6429
2022-11-17T06:01:32.883Z,64.6429
2022-11-17T06:02:32.921Z,64.6429
2022-11-17T06:03:33.179Z,64.5
2022-11-17T06:04:33.025Z,64.4286
2022-11-17T06:05:33.011Z,64.5
2022-11-17T06:06:33.047Z,64.5714
2022-11-17T06:07:33.135Z,64.4286
2022-11-17T06:08:33.112Z,64.3571
2022-11-17T06:09:33.144Z,64.4286
2022-11-17T06:10:33.172Z,64.4286
2022-11-17T06:11:33.217Z,64.5
2022-11-17T06:12:33.232Z,64.4286
2022-11-17T06:13:33.554Z,64.5
2022-11-17T06:14:33.295Z,64.5714
2022-11-17T06:15:33.331Z,64.5
2022-11-17T06:16:33.363Z,64.4286
2022-11-17T06:17:33.406Z,64.5
2022-11-17T06:18:33.431Z,64.5
2022-11-17T06:19:33.470Z,64.5714
2022-11-17T06:20:33.495Z,64.5714
2022-11-17T06:21:49.448Z,64.5714
2022-11-17T06:22:33.560Z,64.4286
2022-11-17T06:23:33.862Z,64.4286
2022-11-17T06:24:33.609Z,64.3571
2022-11-17T06:25:33.646Z,64.3571
2022-11-17T06:26:33.681Z,64.3571
2022-11-17T06:27:33.706Z,64.2857
2022-11-17T06:28:33.726Z,64.2143
2022-11-17T06:29:33.757Z,64.1429
2022-11-17T06:30:33.787Z,64.1429
2022-11-17T06:31:33.816Z,64.2143
2022-11-17T06:32:33.842Z,64.2143
2022-11-17T06:33:34.269Z,64.1429
2022-11-17T06:34:33.897Z,64
2022-11-17T06:35:33.928Z,64
2022-11-17T06:36:33.953Z,64.0714
2022-11-17T06:37:33.983Z,64.1429
2022-11-17T06:38:34.013Z,64.0714
2022-11-17T06:39:34.057Z,64.0714
2022-11-17T06:40:34.077Z,64.1429
2022-11-17T06:41:34.106Z,64.1429
2022-11-17T06:42:34.142Z,64.0714
2022-11-17T06:43:34.646Z,64.2143
2022-11-17T06:44:34.207Z,64.2143
2022-11-17T06:45:34.233Z,64.1429
2022-11-17T06:46:34.270Z,64.1429
2022-11-17T06:47:34.303Z,64.2857
2022-11-17T06:48:34.612Z,64.3571
2022-11-17T06:49:34.388Z,64.2857
2022-11-17T06:50:34.414Z,64.2143
2022-11-17T06:51:34.451Z,64.1429
2022-11-17T06:52:34.479Z,64.0714
2022-11-17T06:53:34.790Z,64.0714
2022-11-17T06:54:34.547Z,64
2022-11-17T06:55:34.584Z,64
2022-11-17T06:56:34.614Z,64.0714
2022-11-17T06:57:34.658Z,64.0714
2022-11-17T06:58:35.032Z,64.2857
2022-11-17T06:59:34.707Z,64.0714
2022-11-17T07:00:34.757Z,64.1429
2022-11-17T07:01:34.767Z,64.0714
2022-11-17T07:02:34.800Z,64.0714
2022-11-17T07:03:35.242Z,64.0714
2022-11-17T07:04:34.864Z,64
2022-11-17T07:05:34.893Z,63.7143
2022-11-17T07:06:34.927Z,63.7143
2022-11-17T07:07:35.000Z,63.7143
2022-11-17T07:08:35.349Z,63.7143
2022-11-17T07:09:35.017Z,63.7143
2022-11-17T07:10:35.050Z,63.6429
2022-11-17T07:11:35.080Z,63.5
2022-11-17T07:12:35.105Z,63.5
2022-11-17T07:13:35.143Z,63.6429
2022-11-17T07:14:35.174Z,63.5714
2022-11-17T07:15:35.202Z,63.5714
2022-11-17T07:16:35.239Z,63.6429
2022-11-17T07:17:35.264Z,63.5714
2022-11-17T07:18:35.571Z,63.4286
2022-11-17T07:19:35.325Z,63.3571
2022-11-17T07:20:35.360Z,63.2857
2022-11-17T07:21:35.390Z,63.4286
2022-11-17T07:22:35.402Z,63.4286
2022-11-17T07:23:35.443Z,63.3571
2022-11-17T07:24:35.484Z,63.2857
2022-11-17T07:25:35.507Z,63.3571
2022-11-17T07:26:35.547Z,63.3571
2022-11-17T07:27:35.585Z,63.3571
2022-11-17T07:28:36.090Z,63.4286
2022-11-17T07:29:35.647Z,63.2857
2022-11-17T07:30:35.669Z,63.3571
2022-11-17T07:31:35.697Z,63.3571
2022-11-17T07:32:35.729Z,63.4286
2022-11-17T07:33:35.756Z,63.5
2022-11-17T07:34:35.793Z,63.5714
2022-11-17T07:35:35.828Z,63.4286
2022-11-17T07:36:35.854Z,63.3571
2022-11-17T07:37:35.886Z,63.2143
2022-11-17T07:38:36.213Z,63.3571
2022-11-17T07:39:35.942Z,63.4286
2022-11-17T07:40:35.973Z,63.3571
2022-11-17T07:41:36.009Z,63.3571
2022-11-17T07:42:36.047Z,63.4286
2022-11-17T07:43:36.077Z,63.3571
2022-11-17T07:44:36.119Z,63.2143
2022-11-17T07:45:36.150Z,63.2143
2022-11-17T07:46:36.181Z,63.1429
2022-11-17T07:47:36.192Z,62.7857
2022-11-17T07:48:36.667Z,62.8571
2022-11-17T07:49:36.256Z,62.8571
2022-11-17T07:50:36.300Z,62.8571
2022-11-17T07:51:36.330Z,62.9286
2022-11-17T07:52:41.294Z,63.0714
2022-11-17T07:53:36.384Z,62.9286
2022-11-17T07:54:36.419Z,62.7143
2022-11-17T07:55:36.440Z,62.7857
2022-11-17T07:56:36.483Z,62.8571
2022-11-17T07:57:36.508Z,62.8571
2022-11-17T07:58:36.817Z,62.9286
2022-11-17T07:59:36.580Z,62.8571
2022-11-17T08:00:36.678Z,62.5714
2022-11-17T08:01:36.638Z,62.5
2022-11-17T08:02:36.669Z,62.5714
2022-11-17T08:03:36.788Z,62.5
2022-11-17T08:04:36.722Z,62.5
2022-11-17T08:05:41.650Z,62.5714
2022-11-17T08:06:36.774Z,62.6429
2022-11-17T08:07:36.895Z,62.6429
2022-11-17T08:08:37.178Z,62.5714
2022-11-17T08:09:36.879Z,62.6429
2022-11-17T08:10:36.921Z,62.6429
2022-11-17T08:11:36.939Z,62.5
2022-11-17T08:12:36.963Z,62.6429
2022-11-17T08:13:37.008Z,62.5714
2022-11-17T08:14:37.027Z,62.5
2022-11-17T08:15:37.073Z,62.4286
2022-11-17T08:16:37.092Z,62.1429
2022-11-17T08:17:37.118Z,62
2022-11-17T08:18:37.460Z,62.0714
2022-11-17T08:19:37.435Z,62.1429
2022-11-17T08:20:37.211Z,62.2143
2022-11-17T08:21:37.245Z,62.3571
2022-11-17T08:22:37.275Z,62.4286
2022-11-17T08:23:37.312Z,62.2857
2022-11-17T08:24:37.339Z,62.1429
2022-11-17T08:25:37.359Z,62.1429
2022-11-17T08:26:37.393Z,62.0714
2022-11-17T08:27:37.415Z,62.1429
2022-11-17T08:28:37.860Z,62.1429
2022-11-17T08:29:37.479Z,62.0714
2022-11-17T08:30:37.512Z,62.1429
2022-11-17T08:31:37.534Z,62.1429
2022-11-17T08:32:37.560Z,61.9286
2022-11-17T08:33:37.591Z,61.7857
2022-11-17T08:34:37.618Z,62
2022-11-17T08:35:37.876Z,61.7857
2022-11-17T08:36:37.688Z,61.7143
2022-11-17T08:37:37.717Z,61.8571
2022-11-17T08:38:38.097Z,62
2022-11-17T08:39:37.777Z,62
2022-11-17T08:40:37.806Z,61.7857
2022-11-17T08:41:37.828Z,61.6429
2022-11-17T08:42:37.864Z,61.7143
2022-11-17T08:43:37.900Z,61.6429
2022-11-17T08:44:37.926Z,61.5
2022-11-17T08:45:37.947Z,61.5714
2022-11-17T08:46:37.977Z,61.4286
2022-11-17T08:47:38.000Z,61.3571
2022-11-17T08:48:38.365Z,61.5
2022-11-17T08:49:38.054Z,61.4286
2022-11-17T08:50:38.091Z,61.4286
2022-11-17T08:51:38.143Z,61.5
2022-11-17T08:52:38.148Z,61.3571
2022-11-17T08:53:38.181Z,61.3571
2022-11-17T08:54:38.210Z,61.3571
2022-11-17T08:55:40.889Z,61.4286
2022-11-17T08:56:38.266Z,61.3571
2022-11-17T08:57:38.302Z,61.2857
2022-11-17T08:58:38.541Z,61.2857
2022-11-17T08:59:38.367Z,61.2857
2022-11-17T09:00:38.520Z,61.4286
2022-11-17T09:01:38.487Z,61.5
2022-11-17T09:02:38.463Z,61.3571
2022-11-17T09:03:38.488Z,61.4286
2022-11-17T09:04:38.521Z,61.5
2022-11-17T09:05:38.547Z,61.3571
2022-11-17T09:06:38.577Z,61.4286
2022-11-17T09:07:38.643Z,61.6429
2022-11-17T09:08:45.670Z,61.7143
2022-11-17T09:09:38.749Z,61.5
2022-11-17T09:10:38.699Z,61.2857
2022-11-17T09:11:38.730Z,61.3571
2022-11-17T09:12:38.770Z,61.4286
2022-11-17T09:13:38.804Z,61.3571
2022-11-17T09:14:38.830Z,61.4286
2022-11-17T09:15:38.861Z,61.2857
2022-11-17T09:16:38.886Z,61.3571
2022-11-17T09:17:38.920Z,61.5714
2022-11-17T09:18:39.410Z,61.6429
2022-11-17T09:19:38.983Z,61.5
2022-11-17T09:20:42.822Z,61.2857
2022-11-17T09:21:39.038Z,61.5
2022-11-17T09:22:39.055Z,61.2857
2022-11-17T09:23:39.533Z,61.4286
2022-11-17T09:24:39.117Z,61.4286
2022-11-17T09:25:39.160Z,61.5714
2022-11-17T09:26:39.176Z,61.5
2022-11-17T09:27:39.212Z,61.5
2022-11-17T09:28:39.649Z,61.6429
2022-11-17T09:29:39.268Z,61.5714
2022-11-17T09:30:39.294Z,61.5
2022-11-17T09:31:39.363Z,61.4286
2022-11-17T09:32:39.356Z,61.5714
2022-11-17T09:33:39.392Z,61.4286
2022-11-17T09:34:39.454Z,61.2857
2022-11-17T09:35:39.447Z,61.3571
2022-11-17T09:36:39.484Z,61.5
2022-11-17T09:37:39.516Z,61.5
2022-11-17T09:38:40.083Z,61.4286
2022-11-17T09:39:39.580Z,61.5714
2022-11-17T09:40:39.610Z,61.5714
2022-11-17T09:41:39.643Z,61.5714
2022-11-17T09:42:39.670Z,61.6429
2022-11-17T09:43:39.705Z,61.6429
2022-11-17T09:44:39.860Z,61.6429
2022-11-17T09:45:39.755Z,61.7857
2022-11-17T09:46:39.789Z,61.7857
2022-11-17T09:47:39.831Z,61.7857
2022-11-17T09:48:41.400Z,61.8571
2022-11-17T09:49:39.889Z,61.6429
2022-11-17T09:50:39.926Z,61.7857
2022-11-17T09:51:39.958Z,61.8571
2022-11-17T09:52:39.984Z,61.8571
2022-11-17T09:53:40.016Z,61.7857
2022-11-17T09:54:40.059Z,62.0714
2022-11-17T09:55:40.084Z,62.2143
2022-11-17T09:56:40.114Z,62.1429
2022-11-17T09:57:40.144Z,62.2143
2022-11-17T09:58:40.208Z,62.0714
2022-11-17T09:59:40.203Z,62
2022-11-17T10:00:40.241Z,62.1429
2022-11-17T10:01:40.359Z,62
2022-11-17T10:02:40.319Z,62.0714
2022-11-17T10:03:45.200Z,62.0714
2022-11-17T10:04:40.384Z,62
2022-11-17T10:05:40.411Z,62.0714
2022-11-17T10:06:40.438Z,62.0714
2022-11-17T10:07:40.463Z,62.1429
2022-11-17T10:08:40.500Z,62.1429
2022-11-17T10:09:40.535Z,62.1429
2022-11-17T10:10:40.559Z,62.1429
2022-11-17T10:11:40.597Z,62.2143
2022-11-17T10:12:40.611Z,62.2143
2022-11-17T10:13:40.641Z,62.1429
2022-11-17T10:14:40.676Z,62.3571
2022-11-17T10:15:40.706Z,62.4286
2022-11-17T10:16:40.743Z,62.5
2022-11-17T10:17:40.771Z,62.5
2022-11-17T10:18:40.803Z,62.5
2022-11-17T10:19:40.831Z,62.5
2022-11-17T10:20:40.867Z,62.3571
2022-11-17T10:21:40.888Z,62.5
2022-11-17T10:22:40.913Z,62.5714
2022-11-17T10:23:46.169Z,62.4286
2022-11-17T10:24:40.974Z,62.4286
2022-11-17T10:25:41.008Z,62.2143
2022-11-17T10:26:41.038Z,62.4286
2022-11-17T10:27:41.073Z,62.5
2022-11-17T10:28:41.106Z,62.4286
2022-11-17T10:29:41.136Z,62.5714
2022-11-17T10:30:41.165Z,62.6429
2022-11-17T10:31:41.187Z,62.7143
2022-11-17T10:32:46.908Z,62.7857
2022-11-17T10:33:41.260Z,62.7143
2022-11-17T10:34:41.850Z,62.7143
2022-11-17T10:35:41.332Z,62.7857
2022-11-17T10:36:41.368Z,62.9286
2022-11-17T10:37:41.401Z,62.7143
2022-11-17T10:38:41.430Z,62.9286
2022-11-17T10:39:41.460Z,62.9286
2022-11-17T10:40:41.495Z,63
2022-11-17T10:41:41.541Z,62.8571
2022-11-17T10:42:41.568Z,62.8571
2022-11-17T10:43:41.601Z,62.8571
2022-11-17T10:44:41.635Z,62.8571
2022-11-17T10:45:41.653Z,62.9286
2022-11-17T10:46:46.160Z,63.0714
2022-11-17T10:47:41.719Z,63.0714
2022-11-17T10:48:41.756Z,63
2022-11-17T10:49:41.788Z,62.9286
2022-11-17T10:50:41.809Z,63
2022-11-17T10:51:41.836Z,63
2022-11-17T10:52:41.873Z,63.0714
2022-11-17T10:53:46.241Z,63.0714
2022-11-17T10:54:41.925Z,63
2022-11-17T10:55:41.970Z,63.2143
2022-11-17T10:56:42.003Z,63.2143
2022-11-17T10:57:42.039Z,63.1429
2022-11-17T10:58:42.067Z,63.2143
2022-11-17T10:59:42.095Z,63
2022-11-17T11:00:42.184Z,62.9286
2022-11-17T11:01:42.240Z,62.8571
2022-11-17T11:02:42.193Z,62.7857
2022-11-17T11:03:42.216Z,62.7857
2022-11-17T11:04:42.245Z,62.7857
2022-11-17T11:05:42.276Z,62.7857
2022-11-17T11:06:42.303Z,62.7143
2022-11-17T11:07:42.338Z,62.7857
2022-11-17T11:08:42.371Z,62.7857
2022-11-17T11:09:42.403Z,62.5714
2022-11-17T11:10:42.428Z,62.5
2022-11-17T11:11:42.458Z,62.6429
2022-11-17T11:12:42.490Z,62.7143
2022-11-17T11:13:42.517Z,62.6429
2022-11-17T11:14:42.548Z,62.6429
2022-11-17T11:15:42.582Z,62.5714
2022-11-17T11:16:47.794Z,62.3571
2022-11-17T11:17:42.641Z,62.3571
2022-11-17T11:18:42.663Z,62.3571
2022-11-17T11:19:42.697Z,62.4286
2022-11-17T11:20:42.735Z,62.5
2022-11-17T11:21:42.767Z,62.5714
2022-11-17T11:22:42.787Z,62.3571
2022-11-17T11:23:42.831Z,62.4286
2022-11-17T11:24:42.880Z,62.6429
2022-11-17T11:25:42.891Z,62.6429
2022-11-17T11:26:42.915Z,62.5
2022-11-17T11:27:42.966Z,62.4286
2022-11-17T11:28:47.956Z,62.2857
2022-11-17T11:29:43.014Z,62.2857
2022-11-17T11:30:43.044Z,62.2143
2022-11-17T11:31:43.074Z,62.3571
2022-11-17T11:32:43.105Z,62.4286
2022-11-17T11:33:43.137Z,62.2143
2022-11-17T11:34:43.164Z,62.1429
2022-11-17T11:35:43.203Z,62.2143
2022-11-17T11:36:43.227Z,62.2143
2022-11-17T11:37:43.266Z,62.2857
2022-11-17T11:38:43.289Z,62.4286
2022-11-17T11:39:43.324Z,62.5
2022-11-17T11:40:43.357Z,62.3571
2022-11-17T11:41:43.398Z,62.3571
2022-11-17T11:42:43.427Z,62.5
2022-11-17T11:43:43.458Z,62.4286
2022-11-17T11:44:43.487Z,62.2857
2022-11-17T11:45:43.510Z,62.2857
2022-11-17T11:46:43.537Z,62.1429
2022-11-17T11:47:43.567Z,62.1429
2022-11-17T11:48:43.603Z,62.3571
2022-11-17T11:49:43.621Z,62.2143
2022-11-17T11:50:43.655Z,62.2143
2022-11-17T11:51:43.689Z,62.2143
2022-11-17T11:52:43.721Z,62.3571
2022-11-17T11:53:43.754Z,62.2143
2022-11-17T11:54:47.791Z,62.0714
2022-11-17T11:55:43.804Z,62
2022-11-17T11:56:43.832Z,62
2022-11-17T11:57:43.871Z,62.2143
2022-11-17T11:58:43.894Z,62.3571
2022-11-17T11:59:43.928Z,62.2143
2022-11-17T12:00:43.958Z,62.0714
2022-11-17T12:01:44.002Z,62.0714
2022-11-17T12:02:44.059Z,62
2022-11-17T12:03:44.088Z,61.8571
2022-11-17T12:04:44.072Z,61.8571
2022-11-17T12:05:44.118Z,62
2022-11-17T12:06:44.148Z,61.9286
2022-11-17T12:07:44.184Z,62
2022-11-17T12:08:44.224Z,61.9286
2022-11-17T12:09:44.250Z,61.7857
2022-11-17T12:10:44.280Z,61.7143
2022-11-17T12:11:44.330Z,61.6429
2022-11-17T12:12:44.344Z,61.7143
2022-11-17T12:13:49.797Z,61.6429
2022-11-17T12:14:44.411Z,61.7143
2022-11-17T12:15:44.424Z,61.6429
2022-11-17T12:16:44.457Z,61.7143
2022-11-17T12:17:44.493Z,61.6429